createdAt,value
2023-04-22T00:04:16.935Z,8.40
2023-04-22T00:09:24.541Z,8.40
2023-04-22T00:14:31.536Z,8.40
2023-04-22T00:19:39.273Z,8.40
2023-04-22T00:24:46.528Z,8.30
2023-04-22T00:29:53.813Z,8.00
2023-04-22T00:35:00.842Z,8.00
2023-04-22T00:40:09.391Z,8.00
2023-04-22T00:45:21.284Z,8.00
2023-04-22T00:50:28.761Z,7.90
2023-04-22T00:55:36.386Z,8.00
2023-04-22T01:00:43.756Z,7.80
2023-04-22T01:05:52.529Z,7.70
2023-04-22T01:11:00.445Z,7.80
2023-04-22T01:16:09.801Z,7.80
2023-04-22T01:21:19.504Z,7.80
2023-04-22T01:26:26.724Z,7.70
2023-04-22T01:31:34.274Z,7.50
2023-04-22T01:36:41.359Z,7.50
2023-04-22T01:41:48.420Z,7.40
2023-04-22T01:46:55.419Z,7.50
2023-04-22T01:52:02.571Z,7.50
2023-04-22T01:57:16.723Z,7.60
2023-04-22T02:02:24.165Z,7.40
2023-04-22T02:07:31.458Z,7.30
2023-04-22T02:12:38.500Z,7.30
2023-04-22T02:17:46.623Z,7.40
2023-04-22T02:22:53.844Z,7.20
2023-04-22T02:28:01.974Z,7.30
2023-04-22T02:33:09.361Z,7.30
2023-04-22T02:38:16.081Z,7.30
2023-04-22T02:43:22.889Z,7.20
2023-04-22T02:48:30.192Z,7.20
2023-04-22T02:53:37.644Z,7.30
2023-04-22T02:58:44.809Z,7.20
2023-04-22T03:03:51.678Z,7.20
2023-04-22T03:08:58.670Z,7.10
2023-04-22T03:14:05.623Z,7.20
2023-04-22T03:19:12.557Z,7.00
2023-04-22T03:24:19.928Z,7.10
2023-04-22T03:29:26.759Z,7.10
2023-04-22T03:34:36.510Z,7.00
2023-04-22T03:39:42.598Z,6.90
2023-04-22T03:44:49.585Z,7.10
2023-04-22T03:49:56.300Z,7.00
2023-04-22T03:55:03.319Z,7.00
2023-04-22T04:00:11.347Z,6.80
2023-04-22T04:05:18.544Z,6.70
2023-04-22T04:10:25.338Z,6.80
2023-04-22T04:15:32.638Z,7.10
2023-04-22T04:20:39.377Z,7.00
2023-04-22T04:25:46.846Z,6.90
2023-04-22T04:30:54.612Z,6.90
2023-04-22T04:36:02.417Z,6.70
2023-04-22T04:41:09.941Z,6.80
2023-04-22T04:46:17.188Z,6.70
2023-04-22T04:51:23.918Z,6.70
2023-04-22T04:56:31.884Z,7.00
2023-04-22T05:01:38.746Z,7.00
2023-04-22T05:06:45.715Z,6.90
2023-04-22T05:11:56.804Z,7.00
2023-04-22T05:17:04.001Z,7.10
2023-04-22T05:22:11.318Z,7.20
2023-04-22T05:27:18.077Z,7.40
2023-04-22T05:32:25.080Z,7.60
2023-04-22T05:37:35.175Z,7.60
2023-04-22T05:42:42.531Z,7.70
2023-04-22T05:47:49.520Z,7.70
2023-04-22T05:52:56.834Z,7.80
2023-04-22T05:58:03.735Z,7.90
2023-04-22T06:03:12.021Z,8.00
2023-04-22T06:08:20.240Z,8.10
2023-04-22T06:13:28.139Z,8.20
2023-04-22T06:18:38.117Z,8.40
2023-04-22T06:23:46.702Z,8.40
2023-04-22T06:28:53.984Z,8.60
2023-04-22T06:34:00.916Z,8.60
2023-04-22T06:39:07.996Z,8.90
2023-04-22T06:44:15.954Z,9.10
2023-04-22T06:49:22.756Z,9.20
2023-04-22T06:54:29.575Z,9.20
2023-04-22T06:59:36.697Z,9.30
2023-04-22T07:04:44.511Z,9.40
2023-04-22T07:09:51.308Z,9.40
2023-04-22T07:14:58.343Z,9.50
2023-04-22T07:20:07.444Z,9.90
2023-04-22T07:25:14.267Z,10.00
2023-04-22T07:30:21.177Z,10.30
2023-04-22T07:35:29.327Z,10.50
2023-04-22T07:40:36.083Z,10.90
2023-04-22T07:45:42.965Z,11.70
2023-04-22T07:50:49.965Z,11.90
2023-04-22T07:55:58.181Z,12.20
2023-04-22T08:01:05.933Z,12.50
2023-04-22T08:06:12.812Z,13.00
2023-04-22T08:11:20.920Z,13.10
2023-04-22T08:16:27.785Z,13.30
2023-04-22T08:21:36.442Z,13.90
2023-04-22T08:26:44.455Z,14.70
2023-04-22T08:31:51.214Z,15.30
2023-04-22T08:36:58.513Z,15.60
2023-04-22T08:42:06.475Z,15.50
2023-04-22T08:47:15.671Z,15.50
2023-04-22T08:52:22.413Z,16.30
2023-04-22T08:57:29.584Z,16.80
2023-04-22T09:02:47.246Z,16.90
2023-04-22T09:07:54.927Z,16.50
2023-04-22T09:13:02.172Z,16.60
2023-04-22T09:18:12.014Z,17.50
2023-04-22T09:23:18.996Z,17.50
2023-04-22T09:28:26.299Z,17.70
2023-04-22T09:33:34.794Z,18.30
2023-04-22T09:38:41.984Z,18.30
2023-04-22T09:43:48.988Z,19.00
2023-04-22T09:49:00.423Z,19.00
2023-04-22T09:54:12.544Z,18.10
2023-04-22T09:59:30.851Z,18.00
2023-04-22T10:04:38.035Z,18.60
2023-04-22T10:09:45.090Z,18.30
2023-04-22T10:14:52.125Z,18.50
2023-04-22T10:20:02.828Z,19.40
2023-04-22T10:25:26.036Z,18.60
2023-04-22T10:30:37.818Z,18.70
2023-04-22T10:36:05.194Z,20.20
2023-04-22T10:41:20.091Z,19.30
2023-04-22T10:46:41.430Z,19.60
2023-04-22T10:51:53.364Z,20.20
2023-04-22T10:57:12.340Z,19.40
2023-04-22T11:02:21.188Z,19.10
2023-04-22T11:07:36.363Z,20.10
2023-04-22T11:12:46.462Z,19.80
2023-04-22T11:17:56.155Z,19.30
2023-04-22T11:23:04.981Z,19.10
2023-04-22T11:28:13.022Z,19.60
2023-04-22T11:33:21.158Z,19.20
2023-04-22T11:38:28.227Z,19.20
2023-04-22T11:43:35.080Z,19.40
2023-04-22T11:48:42.502Z,19.30
2023-04-22T11:53:55.639Z,19.80
2023-04-22T11:59:02.532Z,19.70
2023-04-22T12:04:12.790Z,20.00
2023-04-22T12:09:20.529Z,20.00
2023-04-22T12:14:37.826Z,19.80
2023-04-22T12:19:50.800Z,20.10
2023-04-22T12:25:04.593Z,19.30
2023-04-22T12:30:12.484Z,20.10
2023-04-22T12:35:20.057Z,19.30
2023-04-22T12:40:27.379Z,19.90
2023-04-22T12:45:34.184Z,19.30
2023-04-22T12:50:41.912Z,18.70
2023-04-22T12:55:49.227Z,18.40
2023-04-22T13:00:56.039Z,18.10
2023-04-22T13:06:03.104Z,18.50
2023-04-22T13:11:10.178Z,18.40
2023-04-22T13:16:17.243Z,18.30
2023-04-22T13:21:24.354Z,18.10
2023-04-22T13:26:31.757Z,18.80
2023-04-22T13:31:39.457Z,19.00
2023-04-22T13:36:46.685Z,19.40
2023-04-22T13:41:53.713Z,19.40
2023-04-22T13:47:02.701Z,19.40
2023-04-22T13:52:09.098Z,19.10
2023-04-22T13:57:15.846Z,19.40
2023-04-22T14:02:22.764Z,19.00
2023-04-22T14:07:30.180Z,18.80
2023-04-22T14:12:37.511Z,18.70
2023-04-22T14:17:46.202Z,18.40
2023-04-22T14:22:53.521Z,19.10
2023-04-22T14:28:00.738Z,18.90
2023-04-22T14:33:07.901Z,19.20
2023-04-22T14:38:17.591Z,19.00
2023-04-22T14:43:24.449Z,18.50
2023-04-22T14:48:32.813Z,17.90
2023-04-22T14:53:41.173Z,18.20
2023-04-22T14:58:48.063Z,17.90
2023-04-22T15:03:55.292Z,17.90
2023-04-22T15:09:02.479Z,17.70
2023-04-22T15:14:14.420Z,17.60
2023-04-22T15:19:21.806Z,17.60
2023-04-22T15:24:30.764Z,17.70
2023-04-22T15:29:38.394Z,17.90
2023-04-22T15:34:45.576Z,17.90
2023-04-22T15:39:52.825Z,18.00
2023-04-22T15:44:59.942Z,18.10
2023-04-22T15:50:09.608Z,18.20
2023-04-22T15:55:16.749Z,18.30
2023-04-22T16:00:23.645Z,18.00
2023-04-22T16:05:31.312Z,17.90
2023-04-22T16:10:38.468Z,17.80
2023-04-22T16:15:45.436Z,17.70
2023-04-22T16:20:53.205Z,17.60
2023-04-22T16:26:00.375Z,17.40
2023-04-22T16:31:07.146Z,17.40
2023-04-22T16:36:14.340Z,17.30
2023-04-22T16:41:22.080Z,17.10
2023-04-22T16:46:29.512Z,16.80
2023-04-22T16:51:36.401Z,16.80
2023-04-22T16:56:43.230Z,16.70
2023-04-22T17:01:50.222Z,16.40
2023-04-22T17:06:57.163Z,16.30
2023-04-22T17:12:03.972Z,16.10
2023-04-22T17:17:10.795Z,15.80
2023-04-22T17:22:17.628Z,15.60
2023-04-22T17:27:24.640Z,15.50
2023-04-22T17:32:31.391Z,15.30
2023-04-22T17:37:41.028Z,15.20
2023-04-22T17:42:47.756Z,15.10
2023-04-22T17:47:54.586Z,15.00
2023-04-22T17:53:01.487Z,14.80
2023-04-22T17:58:08.417Z,14.70
2023-04-22T18:03:15.622Z,14.60
2023-04-22T18:08:22.685Z,14.30
2023-04-22T18:13:29.529Z,14.10
2023-04-22T18:18:37.807Z,14.00
2023-04-22T18:23:44.557Z,13.80
2023-04-22T18:28:51.353Z,13.80
2023-04-22T18:33:58.134Z,13.60
2023-04-22T18:39:05.798Z,13.70
2023-04-22T18:44:12.485Z,13.60
2023-04-22T18:49:19.216Z,13.40
2023-04-22T18:54:26.926Z,13.40
2023-04-22T18:59:34.504Z,13.40
2023-04-22T19:04:41.960Z,13.30
2023-04-22T19:09:48.999Z,13.20
2023-04-22T19:14:55.994Z,13.20
2023-04-22T19:20:05.388Z,13.10
2023-04-22T19:25:12.695Z,12.90
2023-04-22T19:30:22.508Z,12.80
2023-04-22T19:35:29.290Z,12.80
2023-04-22T19:40:37.403Z,12.70
2023-04-22T19:45:44.152Z,12.40
2023-04-22T19:50:51.475Z,12.40
2023-04-22T19:55:59.259Z,12.50
2023-04-22T20:01:08.453Z,12.40
2023-04-22T20:06:16.723Z,12.10
2023-04-22T20:11:25.486Z,12.30
2023-04-22T20:16:35.110Z,12.30
2023-04-22T20:21:44.320Z,12.10
2023-04-22T20:26:51.634Z,12.00
2023-04-22T20:31:59.701Z,11.90
2023-04-22T20:37:09.467Z,11.90
2023-04-22T20:42:17.356Z,11.90
2023-04-22T20:47:24.420Z,11.60
2023-04-22T20:52:31.435Z,11.60
2023-04-22T20:57:38.307Z,11.50
2023-04-22T21:02:46.448Z,11.50
2023-04-22T21:07:55.532Z,11.40
2023-04-22T21:13:02.707Z,11.40
2023-04-22T21:18:10.950Z,11.50
2023-04-22T21:23:18.643Z,11.40
2023-04-22T21:28:26.506Z,11.30
2023-04-22T21:33:33.561Z,11.30
2023-04-22T21:38:40.372Z,11.30
2023-04-22T21:43:47.575Z,11.30
2023-04-22T21:48:54.727Z,11.10
2023-04-22T21:54:02.133Z,11.00
2023-04-22T21:59:09.214Z,11.10
2023-04-22T22:04:16.735Z,11.00
2023-04-22T22:09:24.079Z,11.00
2023-04-22T22:14:30.869Z,10.90
2023-04-22T22:19:39.399Z,10.90
2023-04-22T22:24:46.784Z,10.60
2023-04-22T22:29:53.511Z,10.70
2023-04-22T22:35:00.309Z,10.60
2023-04-22T22:40:12.149Z,10.50
2023-04-22T22:45:19.798Z,10.50
2023-04-22T22:50:26.560Z,10.50
2023-04-22T22:55:34.430Z,10.40
2023-04-22T23:00:41.705Z,10.40
2023-04-22T23:05:48.646Z,10.40
2023-04-22T23:10:56.048Z,10.40
2023-04-22T23:16:03.239Z,10.40
2023-04-22T23:21:10.477Z,10.30
2023-04-22T23:26:17.938Z,10.30
2023-04-22T23:31:25.667Z,10.10
2023-04-22T23:36:34.649Z,10.10
2023-04-22T23:41:41.442Z,9.90
2023-04-22T23:46:48.775Z,10.00
2023-04-22T23:51:56.216Z,10.10
2023-04-22T23:57:03.606Z,10.00
